createdAt,value
2017-01-16T00:00:59.600Z,0
2017-01-16T00:02:10.291Z,0
2017-01-16T00:03:21.012Z,0
2017-01-16T00:04:31.759Z,0
2017-01-16T00:05:42.462Z,0
2017-01-16T00:06:53.200Z,0
2017-01-16T00:08:03.901Z,0
2017-01-16T00:09:14.621Z,0
2017-01-16T00:10:25.341Z,0
2017-01-16T00:11:36.042Z,0
2017-01-16T00:12:46.779Z,0
2017-01-16T00:13:57.500Z,0
2017-01-16T00:15:08.268Z,0
2017-01-16T00:16:18.995Z,0
2017-01-16T00:17:29.697Z,0
2017-01-16T00:18:40.439Z,0
2017-01-16T00:19:51.182Z,0
2017-01-16T00:21:01.881Z,0
2017-01-16T00:22:12.625Z,0
2017-01-16T00:23:23.343Z,0
2017-01-16T00:24:34.042Z,0
2017-01-16T00:25:44.755Z,0
2017-01-16T00:26:55.485Z,0
2017-01-16T00:28:06.219Z,0
2017-01-16T00:29:16.932Z,0
2017-01-16T00:30:27.672Z,0
2017-01-16T00:31:38.418Z,0
2017-01-16T00:32:49.160Z,0
2017-01-16T00:33:59.902Z,0
2017-01-16T00:35:10.648Z,0
2017-01-16T00:36:21.358Z,0
2017-01-16T00:37:32.094Z,0
2017-01-16T00:38:42.818Z,0
2017-01-16T00:39:53.566Z,0
2017-01-16T00:41:04.287Z,0
2017-01-16T00:42:15.031Z,0
2017-01-16T00:43:25.778Z,0
2017-01-16T00:44:36.495Z,0
2017-01-16T00:45:47.219Z,0
2017-01-16T00:46:57.966Z,0
2017-01-16T00:48:08.709Z,0
2017-01-16T00:49:19.407Z,0
2017-01-16T00:50:30.128Z,0
2017-01-16T00:51:40.854Z,0
2017-01-16T00:52:51.566Z,0
2017-01-16T00:54:02.296Z,0
2017-01-16T00:55:13.033Z,0
2017-01-16T00:56:23.758Z,0
2017-01-16T00:57:34.503Z,0
2017-01-16T00:58:45.242Z,0
2017-01-16T00:59:55.968Z,0
2017-01-16T01:01:06.716Z,0
2017-01-16T01:02:17.434Z,0
2017-01-16T01:03:28.158Z,0
2017-01-16T01:04:38.900Z,0
2017-01-16T01:05:49.625Z,0
2017-01-16T01:07:00.345Z,0
2017-01-16T01:08:11.110Z,0
2017-01-16T01:09:21.834Z,0
2017-01-16T01:10:32.564Z,0
2017-01-16T01:11:43.327Z,0
2017-01-16T01:12:54.047Z,0
2017-01-16T01:14:04.768Z,0
2017-01-16T01:15:15.535Z,0
2017-01-16T01:16:26.235Z,0
2017-01-16T01:17:36.931Z,0
2017-01-16T01:18:47.632Z,0
2017-01-16T01:19:58.369Z,0
2017-01-16T01:21:09.098Z,0
2017-01-16T01:22:19.865Z,0
2017-01-16T01:23:30.589Z,0
2017-01-16T01:24:41.307Z,0
2017-01-16T01:25:52.029Z,0
2017-01-16T01:27:02.774Z,0
2017-01-16T01:28:13.499Z,0
2017-01-16T01:29:24.220Z,0
2017-01-16T01:30:34.966Z,0
2017-01-16T01:31:45.684Z,0
2017-01-16T01:32:56.406Z,0
2017-01-16T01:34:07.124Z,0
2017-01-16T01:35:17.849Z,0
2017-01-16T01:36:28.586Z,0
2017-01-16T01:37:39.319Z,0
2017-01-16T01:38:50.058Z,0
2017-01-16T01:40:00.782Z,0
2017-01-16T01:41:11.481Z,0
2017-01-16T01:42:22.230Z,0
2017-01-16T01:43:32.967Z,0
2017-01-16T01:44:43.688Z,0
2017-01-16T01:45:54.413Z,0
2017-01-16T01:47:05.135Z,0
2017-01-16T01:48:15.880Z,0
2017-01-16T01:49:26.629Z,0
2017-01-16T01:50:37.338Z,0
2017-01-16T01:51:48.088Z,0
2017-01-16T01:52:58.816Z,0
2017-01-16T01:54:09.560Z,0
2017-01-16T01:55:20.326Z,0
2017-01-16T01:56:31.052Z,0
2017-01-16T01:57:41.768Z,0
2017-01-16T01:58:52.490Z,0
2017-01-16T02:00:03.206Z,0
2017-01-16T02:01:13.907Z,0
2017-01-16T02:02:24.630Z,0
2017-01-16T02:03:35.327Z,0
2017-01-16T02:04:46.027Z,0
2017-01-16T02:05:56.765Z,0
2017-01-16T02:07:07.486Z,0
2017-01-16T02:08:18.185Z,0
2017-01-16T02:09:28.907Z,0
2017-01-16T02:10:39.632Z,0
2017-01-16T02:11:50.370Z,0
2017-01-16T02:13:01.070Z,0
2017-01-16T02:14:11.796Z,0
2017-01-16T02:15:22.533Z,0
2017-01-16T02:16:33.231Z,0
2017-01-16T02:17:43.950Z,0
2017-01-16T02:18:54.654Z,0
2017-01-16T02:20:05.388Z,0
2017-01-16T02:21:16.115Z,0
2017-01-16T02:22:26.809Z,0
2017-01-16T02:23:37.537Z,0
2017-01-16T02:24:48.275Z,0
2017-01-16T02:25:58.996Z,0
2017-01-16T02:27:10.124Z,0
2017-01-16T02:28:20.888Z,0
2017-01-16T02:29:31.638Z,0
2017-01-16T02:30:42.337Z,0
2017-01-16T02:31:53.072Z,0
2017-01-16T02:33:03.801Z,0
2017-01-16T02:34:14.518Z,0
2017-01-16T02:35:25.240Z,0
2017-01-16T02:36:35.960Z,0
2017-01-16T02:37:46.680Z,0
2017-01-16T02:38:57.405Z,0
2017-01-16T02:40:08.116Z,0
2017-01-16T02:41:18.824Z,0
2017-01-16T02:42:29.549Z,0
2017-01-16T02:43:40.285Z,0
2017-01-16T02:44:50.981Z,0
2017-01-16T02:46:01.705Z,0
2017-01-16T02:47:12.426Z,0
2017-01-16T02:48:23.174Z,0
2017-01-16T02:49:33.922Z,0
2017-01-16T02:50:44.654Z,0
2017-01-16T02:51:55.728Z,0
2017-01-16T02:53:06.722Z,0
2017-01-16T02:54:17.929Z,0
2017-01-16T02:55:28.650Z,0
2017-01-16T02:56:39.391Z,0
2017-01-16T02:57:50.112Z,0
2017-01-16T02:59:00.833Z,0
2017-01-16T03:00:11.555Z,0
2017-01-16T03:01:22.279Z,0
2017-01-16T03:02:33.000Z,0
2017-01-16T03:03:43.745Z,0
2017-01-16T03:04:54.456Z,0
2017-01-16T03:06:05.184Z,0
2017-01-16T03:07:15.905Z,0
2017-01-16T03:08:26.607Z,0
2017-01-16T03:09:37.328Z,0
2017-01-16T03:10:48.049Z,0
2017-01-16T03:11:58.792Z,0
2017-01-16T03:13:09.537Z,0
2017-01-16T03:14:20.259Z,0
2017-01-16T03:15:30.970Z,0
2017-01-16T03:16:41.678Z,0
2017-01-16T03:17:52.398Z,0
2017-01-16T03:19:03.144Z,0
2017-01-16T03:20:13.861Z,0
2017-01-16T03:21:24.557Z,0
2017-01-16T03:22:35.256Z,0
2017-01-16T03:23:45.979Z,0
2017-01-16T03:24:56.716Z,0
2017-01-16T03:26:07.811Z,0
2017-01-16T03:27:18.567Z,0
2017-01-16T03:28:29.303Z,0
2017-01-16T03:29:40.007Z,0
2017-01-16T03:30:50.754Z,0
2017-01-16T03:32:01.472Z,0
2017-01-16T03:33:12.570Z,0
2017-01-16T03:34:23.263Z,0
2017-01-16T03:35:33.967Z,0
2017-01-16T03:36:44.680Z,0
2017-01-16T03:37:55.397Z,0
2017-01-16T03:39:06.125Z,0
2017-01-16T03:40:17.248Z,0
2017-01-16T03:41:27.965Z,0
2017-01-16T03:42:38.660Z,0
2017-01-16T03:43:49.384Z,0
2017-01-16T03:45:00.102Z,0
2017-01-16T03:46:10.823Z,0
2017-01-16T03:47:21.544Z,0
2017-01-16T03:48:32.265Z,0
2017-01-16T03:49:42.990Z,0
2017-01-16T03:50:53.707Z,0
2017-01-16T03:52:04.457Z,0
2017-01-16T03:53:15.199Z,0
2017-01-16T03:54:25.895Z,0
2017-01-16T03:55:36.591Z,0
2017-01-16T03:56:47.293Z,0
2017-01-16T03:57:57.988Z,0
2017-01-16T03:59:08.729Z,0
2017-01-16T04:00:19.432Z,0
2017-01-16T04:01:30.146Z,0
2017-01-16T04:02:41.246Z,0
2017-01-16T04:03:52.017Z,0
2017-01-16T04:05:02.734Z,0
2017-01-16T04:06:13.472Z,0
2017-01-16T04:07:24.202Z,0
2017-01-16T04:08:34.925Z,0
2017-01-16T04:09:45.643Z,0
2017-01-16T04:10:56.368Z,0
2017-01-16T04:12:07.485Z,0
2017-01-16T04:13:18.182Z,0
2017-01-16T04:14:28.880Z,0
2017-01-16T04:15:39.632Z,0
2017-01-16T04:16:50.348Z,0
2017-01-16T04:18:01.065Z,0
2017-01-16T04:19:11.785Z,0
2017-01-16T04:20:22.511Z,0
2017-01-16T04:21:33.257Z,0
2017-01-16T04:22:44.001Z,0
2017-01-16T04:23:54.719Z,0
2017-01-16T04:25:05.421Z,0
2017-01-16T04:26:16.116Z,0
2017-01-16T04:27:26.907Z,0
2017-01-16T04:28:37.603Z,0
2017-01-16T04:29:48.327Z,0
2017-01-16T04:30:59.074Z,0
2017-01-16T04:32:09.797Z,0
2017-01-16T04:33:20.517Z,0
2017-01-16T04:34:31.263Z,0
2017-01-16T04:35:41.985Z,0
2017-01-16T04:36:52.718Z,0
2017-01-16T04:38:03.443Z,0
2017-01-16T04:39:14.159Z,0
2017-01-16T04:40:24.889Z,0
2017-01-16T04:41:35.609Z,0
2017-01-16T04:42:46.334Z,0
2017-01-16T04:43:57.069Z,0
2017-01-16T04:45:07.800Z,0
2017-01-16T04:46:18.494Z,0
2017-01-16T04:47:29.269Z,0
2017-01-16T04:48:39.988Z,0
2017-01-16T04:49:50.706Z,0
2017-01-16T04:51:01.427Z,0
2017-01-16T04:52:12.156Z,0
2017-01-16T04:53:22.869Z,0
2017-01-16T04:54:33.599Z,0
2017-01-16T04:55:44.332Z,0
2017-01-16T04:56:55.042Z,0
2017-01-16T04:58:05.795Z,0
2017-01-16T04:59:16.525Z,0
2017-01-16T05:00:27.274Z,0
2017-01-16T05:01:37.995Z,0
2017-01-16T05:02:48.720Z,0
2017-01-16T05:03:59.829Z,0
2017-01-16T05:05:10.532Z,0
2017-01-16T05:06:21.252Z,0
2017-01-16T05:07:31.975Z,0
2017-01-16T05:08:42.717Z,0
2017-01-16T05:09:53.442Z,0
2017-01-16T05:11:04.138Z,0
2017-01-16T05:12:14.860Z,0
2017-01-16T05:13:25.568Z,0
2017-01-16T05:14:36.272Z,0
2017-01-16T05:15:47.011Z,0
2017-01-16T05:16:57.767Z,0
2017-01-16T05:18:08.503Z,0
2017-01-16T05:19:19.210Z,0
2017-01-16T05:20:29.932Z,0
2017-01-16T05:21:40.665Z,0
2017-01-16T05:22:51.372Z,0
2017-01-16T05:24:02.096Z,0
2017-01-16T05:25:12.831Z,0
2017-01-16T05:26:23.557Z,0
2017-01-16T05:27:34.277Z,0
2017-01-16T05:28:45.005Z,0
2017-01-16T05:29:55.745Z,0
2017-01-16T05:31:06.447Z,0
2017-01-16T05:32:17.166Z,0
2017-01-16T05:33:27.916Z,0
2017-01-16T05:34:38.658Z,0
2017-01-16T05:35:49.376Z,0
2017-01-16T05:37:00.099Z,0
2017-01-16T05:38:10.847Z,0
2017-01-16T05:39:21.592Z,0
2017-01-16T05:40:32.313Z,0
2017-01-16T05:41:43.056Z,0
2017-01-16T05:42:53.771Z,0
2017-01-16T05:44:04.502Z,0
2017-01-16T05:45:15.221Z,0
2017-01-16T05:46:25.943Z,0
2017-01-16T05:47:36.676Z,0
2017-01-16T05:48:47.435Z,0
2017-01-16T05:49:58.155Z,0
2017-01-16T05:51:08.872Z,0
2017-01-16T05:52:19.578Z,0
2017-01-16T05:53:30.289Z,0
2017-01-16T05:54:40.985Z,0
2017-01-16T05:55:51.709Z,0
2017-01-16T05:57:02.431Z,0
2017-01-16T05:58:13.151Z,0
2017-01-16T05:59:23.874Z,0
2017-01-16T06:00:34.622Z,0
2017-01-16T06:01:45.339Z,0
2017-01-16T06:02:56.060Z,0
2017-01-16T06:04:06.782Z,0
2017-01-16T06:05:17.525Z,0
2017-01-16T06:06:28.249Z,0
2017-01-16T06:07:38.994Z,0
2017-01-16T06:08:49.696Z,0
2017-01-16T06:10:00.437Z,0
2017-01-16T06:11:11.176Z,0
2017-01-16T06:12:21.903Z,0
2017-01-16T06:13:32.650Z,0
2017-01-16T06:14:43.393Z,0
2017-01-16T06:15:54.116Z,0
2017-01-16T06:17:04.860Z,0
2017-01-16T06:18:15.580Z,0
2017-01-16T06:19:26.304Z,0
2017-01-16T06:20:37.025Z,0
2017-01-16T06:21:47.719Z,0
2017-01-16T06:22:58.414Z,0
2017-01-16T06:24:09.135Z,0
2017-01-16T06:25:19.835Z,0
2017-01-16T06:26:30.578Z,0
2017-01-16T06:27:41.290Z,0
2017-01-16T06:28:52.003Z,4
2017-01-16T06:30:02.719Z,4
2017-01-16T06:31:13.465Z,0
2017-01-16T06:32:24.186Z,0
2017-01-16T06:33:34.903Z,4
2017-01-16T06:34:45.602Z,4
2017-01-16T06:35:56.295Z,4
2017-01-16T06:37:06.995Z,4
2017-01-16T06:38:17.694Z,4
2017-01-16T06:39:28.391Z,12
2017-01-16T06:40:39.079Z,8
2017-01-16T06:41:49.799Z,12
2017-01-16T06:43:00.500Z,16
2017-01-16T06:44:11.618Z,16
2017-01-16T06:45:22.333Z,20
2017-01-16T06:46:33.059Z,24
2017-01-16T06:47:43.757Z,28
2017-01-16T06:48:54.475Z,32
2017-01-16T06:50:05.171Z,40
2017-01-16T06:51:15.900Z,48
2017-01-16T06:52:26.617Z,52
2017-01-16T06:53:37.337Z,60
2017-01-16T06:54:48.055Z,68
2017-01-16T06:55:58.779Z,76
2017-01-16T06:57:09.478Z,92
2017-01-16T06:58:20.220Z,100
2017-01-16T06:59:30.944Z,116
2017-01-16T07:00:41.661Z,132
2017-01-16T07:01:52.384Z,148
2017-01-16T07:03:03.119Z,164
2017-01-16T07:04:13.832Z,180
2017-01-16T07:05:24.544Z,200
2017-01-16T07:06:35.244Z,224
2017-01-16T07:07:45.940Z,244
2017-01-16T07:08:56.656Z,272
2017-01-16T07:10:07.378Z,292
2017-01-16T07:11:18.076Z,320
2017-01-16T07:12:28.822Z,348
2017-01-16T07:13:39.547Z,372
2017-01-16T07:14:50.264Z,404
2017-01-16T07:16:01.009Z,436
2017-01-16T07:17:11.749Z,468
2017-01-16T07:18:22.474Z,496
2017-01-16T07:19:33.219Z,532
2017-01-16T07:20:43.948Z,564
2017-01-16T07:21:54.664Z,604
2017-01-16T07:23:05.382Z,636
2017-01-16T07:24:16.455Z,680
2017-01-16T07:25:27.173Z,716
2017-01-16T07:26:37.900Z,756
2017-01-16T07:27:48.618Z,796
2017-01-16T07:28:59.335Z,840
2017-01-16T07:30:10.036Z,888
2017-01-16T07:31:20.758Z,936
2017-01-16T07:32:31.474Z,1012
2017-01-16T07:33:42.195Z,1092
2017-01-16T07:34:52.895Z,1168
2017-01-16T07:36:03.614Z,1312
2017-01-16T07:37:14.341Z,1284
2017-01-16T07:38:25.070Z,1256
2017-01-16T07:39:35.779Z,1328
2017-01-16T07:40:46.523Z,1364
2017-01-16T07:41:57.219Z,1400
2017-01-16T07:43:07.966Z,1548
2017-01-16T07:44:18.658Z,1828
2017-01-16T07:45:29.382Z,1692
2017-01-16T07:46:40.134Z,1772
2017-01-16T07:47:50.849Z,1544
2017-01-16T07:49:01.593Z,1784
2017-01-16T07:50:12.313Z,2016
2017-01-16T07:51:23.055Z,2112
2017-01-16T07:52:33.788Z,2020
2017-01-16T07:53:44.505Z,2148
2017-01-16T07:54:55.225Z,2168
2017-01-16T07:56:05.945Z,2024
2017-01-16T07:57:16.688Z,2520
2017-01-16T07:58:27.435Z,2560
2017-01-16T07:59:38.130Z,2568
2017-01-16T08:00:48.868Z,2328
2017-01-16T08:01:59.572Z,2612
2017-01-16T08:03:10.274Z,2852
2017-01-16T08:04:20.991Z,2400
2017-01-16T08:05:31.736Z,2344
2017-01-16T08:06:42.448Z,2572
2017-01-16T08:07:53.179Z,2480
2017-01-16T08:09:03.927Z,2784
2017-01-16T08:10:14.672Z,2504
2017-01-16T08:11:25.418Z,2280
2017-01-16T08:12:36.137Z,2728
2017-01-16T08:13:46.835Z,2928
2017-01-16T08:14:57.580Z,2652
2017-01-16T08:16:08.293Z,2380
2017-01-16T08:17:18.994Z,2636
2017-01-16T08:18:29.735Z,2820
2017-01-16T08:19:40.455Z,2968
2017-01-16T08:20:51.159Z,2772
2017-01-16T08:22:01.878Z,3028
2017-01-16T08:23:12.597Z,3072
2017-01-16T08:24:23.298Z,2752
2017-01-16T08:25:34.036Z,3344
2017-01-16T08:26:44.764Z,3460
2017-01-16T08:27:55.481Z,3292
2017-01-16T08:29:06.180Z,3676
2017-01-16T08:30:16.894Z,3916
2017-01-16T08:31:27.627Z,3608
2017-01-16T08:32:38.365Z,2820
2017-01-16T08:33:49.111Z,3648
2017-01-16T08:34:59.809Z,3844
2017-01-16T08:36:10.528Z,4092
2017-01-16T08:37:21.245Z,4604
2017-01-16T08:38:31.930Z,4644
2017-01-16T08:39:42.666Z,3920
2017-01-16T08:40:53.391Z,5152
2017-01-16T08:42:04.111Z,4752
2017-01-16T08:43:14.834Z,4940
2017-01-16T08:44:25.552Z,5936
2017-01-16T08:45:36.272Z,4268
2017-01-16T08:46:47.018Z,6676
2017-01-16T08:47:57.742Z,5692
2017-01-16T08:49:08.488Z,5532
2017-01-16T08:50:19.230Z,5616
2017-01-16T08:51:29.929Z,5604
2017-01-16T08:52:40.657Z,4812
2017-01-16T08:53:51.397Z,5104
2017-01-16T08:55:02.120Z,7396
2017-01-16T08:56:12.861Z,5640
2017-01-16T08:57:23.584Z,5860
2017-01-16T08:58:34.306Z,5408
2017-01-16T08:59:45.030Z,6796
2017-01-16T09:00:55.748Z,7000
2017-01-16T09:02:06.469Z,4912
2017-01-16T09:03:17.211Z,5624
2017-01-16T09:04:27.911Z,7636
2017-01-16T09:05:38.629Z,7820
2017-01-16T09:06:49.328Z,6512
2017-01-16T09:08:00.050Z,5756
2017-01-16T09:09:10.776Z,6736
2017-01-16T09:10:21.489Z,5324
2017-01-16T09:11:32.212Z,6440
2017-01-16T09:12:42.958Z,5800
2017-01-16T09:13:53.680Z,5828
2017-01-16T09:15:04.402Z,7236
2017-01-16T09:16:15.146Z,6384
2017-01-16T09:17:25.895Z,4920
2017-01-16T09:18:36.613Z,5532
2017-01-16T09:19:47.340Z,6704
2017-01-16T09:20:58.082Z,5192
2017-01-16T09:22:08.849Z,6200
2017-01-16T09:23:19.570Z,5020
2017-01-16T09:24:30.319Z,7688
2017-01-16T09:25:41.037Z,6444
2017-01-16T09:26:51.790Z,8112
2017-01-16T09:28:02.528Z,7604
2017-01-16T09:29:13.627Z,5676
2017-01-16T09:30:24.396Z,8016
2017-01-16T09:31:35.092Z,7928
2017-01-16T09:32:45.792Z,6300
2017-01-16T09:33:56.512Z,5480
2017-01-16T09:35:07.258Z,4632
2017-01-16T09:36:18.381Z,5664
2017-01-16T09:37:29.106Z,6368
2017-01-16T09:38:39.847Z,9632
2017-01-16T09:39:50.593Z,9500
2017-01-16T09:41:01.286Z,10088
2017-01-16T09:42:11.982Z,9672
2017-01-16T09:43:22.703Z,8436
2017-01-16T09:44:33.428Z,7420
2017-01-16T09:45:44.180Z,8276
2017-01-16T09:46:54.916Z,7044
2017-01-16T09:48:05.616Z,6860
2017-01-16T09:49:16.354Z,6764
2017-01-16T09:50:27.080Z,8004
2017-01-16T09:51:37.803Z,8656
2017-01-16T09:52:48.525Z,7748
2017-01-16T09:53:59.243Z,6748
2017-01-16T09:55:09.968Z,7064
2017-01-16T09:56:20.695Z,7372
2017-01-16T09:57:31.811Z,7104
2017-01-16T09:58:42.556Z,7088
2017-01-16T09:59:53.279Z,8936
2017-01-16T10:01:03.998Z,8032
2017-01-16T10:02:14.716Z,6116
2017-01-16T10:03:25.418Z,4844
2017-01-16T10:04:36.125Z,6676
2017-01-16T10:05:46.882Z,8676
2017-01-16T10:06:58.000Z,9496
2017-01-16T10:08:08.726Z,9928
2017-01-16T10:09:19.443Z,7856
2017-01-16T10:10:30.142Z,8196
2017-01-16T10:11:40.864Z,8880
2017-01-16T10:12:51.609Z,9436
2017-01-16T10:14:02.377Z,10752
2017-01-16T10:15:13.151Z,7988
2017-01-16T10:16:23.853Z,12584
2017-01-16T10:17:34.594Z,12044
2017-01-16T10:18:45.311Z,9764
2017-01-16T10:19:56.050Z,8108
2017-01-16T10:21:06.758Z,8984
2017-01-16T10:22:17.477Z,9244
2017-01-16T10:23:28.200Z,10332
2017-01-16T10:24:38.947Z,9464
2017-01-16T10:25:49.688Z,9628
2017-01-16T10:27:00.413Z,9956
2017-01-16T10:28:11.155Z,12504
2017-01-16T10:29:21.880Z,10304
2017-01-16T10:30:32.572Z,7772
2017-01-16T10:31:43.293Z,9996
2017-01-16T10:32:53.997Z,10768
2017-01-16T10:34:04.756Z,7928
2017-01-16T10:35:15.478Z,8344
2017-01-16T10:36:26.208Z,9704
2017-01-16T10:37:36.907Z,8828
2017-01-16T10:38:47.673Z,8820
2017-01-16T10:39:58.444Z,9528
2017-01-16T10:41:09.161Z,7908
2017-01-16T10:42:19.889Z,6700
2017-01-16T10:43:30.632Z,7304
2017-01-16T10:44:41.357Z,8824
2017-01-16T10:45:52.074Z,13016
2017-01-16T10:47:02.837Z,14132
2017-01-16T10:48:13.558Z,12720
2017-01-16T10:49:24.301Z,9560
2017-01-16T10:50:35.022Z,9408
2017-01-16T10:51:45.751Z,9952
2017-01-16T10:52:56.473Z,10508
2017-01-16T10:54:07.194Z,9160
2017-01-16T10:55:17.914Z,10376
2017-01-16T10:56:28.645Z,10940
2017-01-16T10:57:39.374Z,10216
2017-01-16T10:58:50.102Z,8396
2017-01-16T11:00:00.845Z,7040
2017-01-16T11:01:11.572Z,9244
2017-01-16T11:02:22.294Z,7436
2017-01-16T11:03:33.015Z,9588
2017-01-16T11:04:43.757Z,8676
2017-01-16T11:05:54.456Z,9636
2017-01-16T11:07:05.192Z,10716
2017-01-16T11:08:15.944Z,7724
2017-01-16T11:09:26.669Z,9120
2017-01-16T11:10:37.417Z,9596
2017-01-16T11:11:48.159Z,9100
2017-01-16T11:12:58.879Z,9348
2017-01-16T11:14:09.620Z,9132
2017-01-16T11:15:20.345Z,10436
2017-01-16T11:16:31.067Z,9880
2017-01-16T11:17:41.783Z,9236
2017-01-16T11:18:52.526Z,9348
2017-01-16T11:20:03.634Z,9396
2017-01-16T11:21:14.379Z,10396
2017-01-16T11:22:25.099Z,9884
2017-01-16T11:23:35.798Z,10256
2017-01-16T11:24:46.548Z,10160
2017-01-16T11:25:57.263Z,9380
2017-01-16T11:27:07.987Z,10436
2017-01-16T11:28:18.705Z,10296
2017-01-16T11:29:29.471Z,9608
2017-01-16T11:30:40.170Z,9788
2017-01-16T11:31:50.889Z,9740
2017-01-16T11:33:01.585Z,11244
2017-01-16T11:34:12.287Z,9336
2017-01-16T11:35:23.028Z,9800
2017-01-16T11:36:33.735Z,8944
2017-01-16T11:37:44.494Z,9048
2017-01-16T11:38:55.217Z,8380
2017-01-16T11:40:05.964Z,9224
2017-01-16T11:41:16.709Z,9212
2017-01-16T11:42:27.435Z,9436
2017-01-16T11:43:38.152Z,10172
2017-01-16T11:44:48.873Z,9700
2017-01-16T11:45:59.622Z,10516
2017-01-16T11:47:10.341Z,9956
2017-01-16T11:48:21.060Z,11064
2017-01-16T11:49:31.783Z,9336
2017-01-16T11:50:42.523Z,9152
2017-01-16T11:51:53.243Z,9960
2017-01-16T11:53:03.965Z,10484
2017-01-16T11:54:14.669Z,9508
2017-01-16T11:55:25.407Z,10324
2017-01-16T11:56:36.158Z,8984
2017-01-16T11:57:46.906Z,9912
2017-01-16T11:58:57.624Z,8668
2017-01-16T12:00:08.365Z,7536
2017-01-16T12:01:19.086Z,8164
2017-01-16T12:02:29.807Z,7960
2017-01-16T12:03:40.510Z,7076
2017-01-16T12:04:51.252Z,6620
2017-01-16T12:06:01.996Z,7156
2017-01-16T12:07:12.720Z,7128
2017-01-16T12:08:23.465Z,7108
2017-01-16T12:09:34.207Z,6944
2017-01-16T12:10:44.928Z,6740
2017-01-16T12:11:55.654Z,7200
2017-01-16T12:13:06.373Z,6744
2017-01-16T12:14:17.065Z,6740
2017-01-16T12:15:27.789Z,5908
2017-01-16T12:16:38.507Z,5648
2017-01-16T12:17:49.233Z,5688
2017-01-16T12:18:59.978Z,5852
2017-01-16T12:20:10.730Z,5468
2017-01-16T12:21:21.470Z,5400
2017-01-16T12:22:32.193Z,5144
2017-01-16T12:23:42.933Z,4684
2017-01-16T12:24:53.671Z,4552
2017-01-16T12:26:04.399Z,4336
2017-01-16T12:27:15.099Z,4280
2017-01-16T12:28:25.868Z,4368
2017-01-16T12:29:36.590Z,4152
2017-01-16T12:30:47.310Z,4076
2017-01-16T12:31:58.437Z,4144
2017-01-16T12:33:09.167Z,4412
2017-01-16T12:34:19.916Z,5036
2017-01-16T12:35:30.645Z,5336
2017-01-16T12:36:41.387Z,5572
2017-01-16T12:37:52.107Z,5756
2017-01-16T12:39:02.828Z,5500
2017-01-16T12:40:13.524Z,5568
2017-01-16T12:41:24.245Z,6228
2017-01-16T12:42:34.970Z,6564
2017-01-16T12:43:45.686Z,7572
2017-01-16T12:44:56.407Z,7988
2017-01-16T12:46:07.131Z,7708
2017-01-16T12:47:17.850Z,8168
2017-01-16T12:48:28.546Z,8136
2017-01-16T12:49:39.273Z,8012
2017-01-16T12:50:50.015Z,7648
2017-01-16T12:52:00.757Z,7588
2017-01-16T12:53:11.479Z,8000
2017-01-16T12:54:22.200Z,8648
2017-01-16T12:55:32.899Z,8532
2017-01-16T12:56:43.616Z,8204
2017-01-16T12:57:54.337Z,7792
2017-01-16T12:59:05.057Z,8424
2017-01-16T13:00:15.757Z,7564
2017-01-16T13:01:26.478Z,7816
2017-01-16T13:02:37.174Z,7236
2017-01-16T13:03:47.947Z,7616
2017-01-16T13:04:58.676Z,7572
2017-01-16T13:06:09.409Z,7400
2017-01-16T13:07:20.525Z,6880
2017-01-16T13:08:31.256Z,6720
2017-01-16T13:09:41.998Z,6676
2017-01-16T13:10:52.771Z,6088
2017-01-16T13:12:03.518Z,6008
2017-01-16T13:13:14.237Z,6348
2017-01-16T13:14:24.963Z,6532
2017-01-16T13:15:35.695Z,6444
2017-01-16T13:16:46.428Z,6112
2017-01-16T13:17:57.146Z,5708
2017-01-16T13:19:07.883Z,5904
2017-01-16T13:20:18.591Z,5868
2017-01-16T13:21:29.287Z,6036
2017-01-16T13:22:40.022Z,5852
2017-01-16T13:23:50.755Z,5772
2017-01-16T13:25:01.497Z,5520
2017-01-16T13:26:12.197Z,5540
2017-01-16T13:27:22.909Z,5728
2017-01-16T13:28:33.613Z,5320
2017-01-16T13:29:44.331Z,5120
2017-01-16T13:30:55.071Z,5500
2017-01-16T13:32:05.777Z,5592
2017-01-16T13:33:16.525Z,5344
2017-01-16T13:34:27.271Z,5344
2017-01-16T13:35:37.991Z,5816
2017-01-16T13:36:48.708Z,5240
2017-01-16T13:37:59.432Z,5780
2017-01-16T13:39:10.206Z,6140
2017-01-16T13:40:20.950Z,5604
2017-01-16T13:41:32.064Z,5380
2017-01-16T13:42:42.797Z,5192
2017-01-16T13:43:53.539Z,4984
2017-01-16T13:45:04.274Z,4996
2017-01-16T13:46:15.031Z,4984
2017-01-16T13:47:25.776Z,4828
2017-01-16T13:48:36.497Z,4664
2017-01-16T13:49:47.217Z,4028
2017-01-16T13:50:57.940Z,2976
2017-01-16T13:52:08.678Z,2540
2017-01-16T13:53:19.404Z,2444
2017-01-16T13:54:30.129Z,2660
2017-01-16T13:55:40.846Z,3188
2017-01-16T13:56:51.564Z,3012
2017-01-16T13:58:02.293Z,3032
2017-01-16T13:59:13.014Z,3544
2017-01-16T14:00:23.760Z,3116
2017-01-16T14:01:34.506Z,3920
2017-01-16T14:02:45.224Z,4632
2017-01-16T14:03:55.949Z,3240
2017-01-16T14:05:06.690Z,4548
2017-01-16T14:06:17.387Z,5688
2017-01-16T14:07:28.111Z,5860
2017-01-16T14:08:38.858Z,5004
2017-01-16T14:09:49.575Z,4208
2017-01-16T14:11:00.299Z,2600
2017-01-16T14:12:10.997Z,2348
2017-01-16T14:13:21.720Z,2768
2017-01-16T14:14:32.463Z,3060
2017-01-16T14:15:43.216Z,3396
2017-01-16T14:16:53.955Z,3768
2017-01-16T14:18:04.698Z,4072
2017-01-16T14:19:15.440Z,4388
2017-01-16T14:20:26.193Z,3908
2017-01-16T14:21:36.916Z,3572
2017-01-16T14:22:47.657Z,3368
2017-01-16T14:23:58.381Z,3316
2017-01-16T14:25:09.103Z,3328
2017-01-16T14:26:19.824Z,3264
2017-01-16T14:27:30.550Z,3144
2017-01-16T14:28:41.293Z,2728
2017-01-16T14:29:52.027Z,2816
2017-01-16T14:31:02.748Z,2656
2017-01-16T14:32:13.455Z,2380
2017-01-16T14:33:24.173Z,2480
2017-01-16T14:34:34.894Z,2304
2017-01-16T14:35:45.643Z,2124
2017-01-16T14:36:56.389Z,2172
2017-01-16T14:38:07.135Z,2092
2017-01-16T14:39:17.856Z,1964
2017-01-16T14:40:28.574Z,1908
2017-01-16T14:41:39.275Z,1832
2017-01-16T14:42:49.995Z,1832
2017-01-16T14:44:00.716Z,1788
2017-01-16T14:45:11.462Z,1648
2017-01-16T14:46:22.180Z,1548
2017-01-16T14:47:32.883Z,1532
2017-01-16T14:48:43.618Z,1536
2017-01-16T14:49:54.348Z,1532
2017-01-16T14:51:05.067Z,1468
2017-01-16T14:52:15.793Z,1300
2017-01-16T14:53:26.527Z,1172
2017-01-16T14:54:37.228Z,1112
2017-01-16T14:55:47.951Z,1160
2017-01-16T14:56:58.696Z,1196
2017-01-16T14:58:09.408Z,1148
2017-01-16T14:59:20.141Z,1016
2017-01-16T15:00:30.886Z,976
2017-01-16T15:01:41.621Z,924
2017-01-16T15:02:52.330Z,812
2017-01-16T15:04:03.073Z,756
2017-01-16T15:05:13.816Z,724
2017-01-16T15:06:24.567Z,696
2017-01-16T15:07:35.287Z,624
2017-01-16T15:08:46.005Z,604
2017-01-16T15:09:56.730Z,556
2017-01-16T15:11:07.475Z,564
2017-01-16T15:12:18.214Z,552
2017-01-16T15:13:28.935Z,504
2017-01-16T15:14:39.652Z,476
2017-01-16T15:15:50.402Z,460
2017-01-16T15:17:01.128Z,432
2017-01-16T15:18:11.828Z,404
2017-01-16T15:19:22.553Z,380
2017-01-16T15:20:33.319Z,344
2017-01-16T15:21:44.040Z,316
2017-01-16T15:22:54.733Z,288
2017-01-16T15:24:05.455Z,256
2017-01-16T15:25:16.184Z,236
2017-01-16T15:26:26.925Z,220
2017-01-16T15:27:37.673Z,200
2017-01-16T15:28:48.392Z,176
2017-01-16T15:29:59.128Z,160
2017-01-16T15:31:09.859Z,152
2017-01-16T15:32:20.576Z,136
2017-01-16T15:33:31.274Z,120
2017-01-16T15:34:41.993Z,104
2017-01-16T15:35:52.698Z,92
2017-01-16T15:37:03.427Z,80
2017-01-16T15:38:14.135Z,72
2017-01-16T15:39:24.869Z,64
2017-01-16T15:40:35.573Z,52
2017-01-16T15:41:46.271Z,48
2017-01-16T15:42:57.018Z,40
2017-01-16T15:44:07.764Z,36
2017-01-16T15:45:18.482Z,32
2017-01-16T15:46:29.203Z,24
2017-01-16T15:47:39.924Z,24
2017-01-16T15:48:50.673Z,20
2017-01-16T15:50:01.383Z,16
2017-01-16T15:51:12.145Z,12
2017-01-16T15:52:22.859Z,12
2017-01-16T15:53:33.582Z,12
2017-01-16T15:54:44.318Z,8
2017-01-16T15:55:55.051Z,4
2017-01-16T15:57:05.778Z,4
2017-01-16T15:58:16.513Z,4
2017-01-16T15:59:27.213Z,4
2017-01-16T16:00:37.959Z,4
2017-01-16T16:01:48.682Z,4
2017-01-16T16:02:59.401Z,4
2017-01-16T16:04:10.118Z,0
2017-01-16T16:05:20.843Z,4
2017-01-16T16:06:31.564Z,4
2017-01-16T16:07:42.306Z,0
2017-01-16T16:08:53.006Z,0
2017-01-16T16:10:04.142Z,0
2017-01-16T16:11:15.218Z,0
2017-01-16T16:12:25.940Z,0
2017-01-16T16:13:36.664Z,0
2017-01-16T16:14:47.385Z,0
2017-01-16T16:15:58.083Z,0
2017-01-16T16:17:08.801Z,0
2017-01-16T16:18:19.536Z,0
2017-01-16T16:19:30.250Z,0
2017-01-16T16:20:40.961Z,0
2017-01-16T16:21:51.685Z,0
2017-01-16T16:23:02.408Z,0
2017-01-16T16:24:13.124Z,0
2017-01-16T16:25:23.845Z,0
2017-01-16T16:26:34.569Z,0
2017-01-16T16:27:45.330Z,0
2017-01-16T16:28:56.061Z,0